createdAt,value
2024-03-05T00:00:22.908Z,11.26
2024-03-05T00:05:24.933Z,11.30
2024-03-05T00:10:26.568Z,11.25
2024-03-05T00:15:28.403Z,11.40
2024-03-05T00:20:30.074Z,11.30
2024-03-05T00:25:31.774Z,11.18
2024-03-05T00:30:33.434Z,11.32
2024-03-05T00:35:35.310Z,11.33
2024-03-05T00:40:36.950Z,11.24
2024-03-05T00:45:38.570Z,11.37
2024-03-05T00:50:41.080Z,11.32
2024-03-05T00:55:42.796Z,10.56
2024-03-05T01:00:44.547Z,9.73
2024-03-05T01:05:46.668Z,10.74
2024-03-05T01:10:48.336Z,11.07
2024-03-05T01:15:50.001Z,11.23
2024-03-05T01:20:51.571Z,11.24
2024-03-05T01:25:53.257Z,11.08
2024-03-05T01:30:55.670Z,11.10
2024-03-05T01:35:57.893Z,11.17
2024-03-05T01:40:59.536Z,11.15
2024-03-05T01:46:01.345Z,11.05
2024-03-05T01:51:03.301Z,11.22
2024-03-05T01:56:06.036Z,11.00
2024-03-05T02:01:08.305Z,11.02
2024-03-05T02:06:12.155Z,11.14
2024-03-05T02:11:14.820Z,11.00
2024-03-05T02:16:17.060Z,10.95
2024-03-05T02:21:22.364Z,11.03
2024-03-05T02:26:25.424Z,10.95
2024-03-05T02:31:27.247Z,10.90
2024-03-05T02:36:28.854Z,10.98
2024-03-05T02:41:30.524Z,10.93
2024-03-05T02:46:32.299Z,10.80
2024-03-05T02:51:33.942Z,10.57
2024-03-05T02:56:35.625Z,11.02
2024-03-05T03:01:37.944Z,10.80
2024-03-05T03:06:40.894Z,10.63
2024-03-05T03:11:43.147Z,10.74
2024-03-05T03:16:45.349Z,10.73
2024-03-05T03:21:47.107Z,10.67
2024-03-05T03:26:49.902Z,10.50
2024-03-05T03:31:51.624Z,10.68
2024-03-05T03:36:54.742Z,10.64
2024-03-05T03:41:56.581Z,10.61
2024-03-05T03:46:58.348Z,10.56
2024-03-05T03:52:00.775Z,10.48
2024-03-05T03:57:02.346Z,10.13
2024-03-05T04:02:05.015Z,9.55
2024-03-05T04:07:07.620Z,10.48
2024-03-05T04:12:09.415Z,10.39
2024-03-05T04:17:11.020Z,10.31
2024-03-05T04:22:15.373Z,10.25
2024-03-05T04:27:19.744Z,10.37
2024-03-05T04:32:22.072Z,10.17
2024-03-05T04:37:23.715Z,10.08
2024-03-05T04:42:26.596Z,10.01
2024-03-05T04:47:28.226Z,10.08
2024-03-05T04:52:32.733Z,10.18
2024-03-05T04:57:35.701Z,10.24
2024-03-05T05:02:37.312Z,10.08
2024-03-05T05:07:38.957Z,9.96
2024-03-05T05:12:41.130Z,10.02
2024-03-05T05:17:42.853Z,10.15
2024-03-05T05:22:45.633Z,10.10
2024-03-05T05:27:50.778Z,9.96
2024-03-05T05:32:53.382Z,10.02
2024-03-05T05:37:55.291Z,10.10
2024-03-05T05:42:56.936Z,10.08
2024-03-05T05:47:59.479Z,9.89
2024-03-05T05:53:01.573Z,9.72
2024-03-05T05:58:05.478Z,9.78
2024-03-05T06:03:12.312Z,9.84
2024-03-05T06:08:16.005Z,9.83
2024-03-05T06:13:17.774Z,9.83
2024-03-05T06:18:19.513Z,9.19
2024-03-05T06:23:21.340Z,9.91
2024-03-05T06:28:23.003Z,9.68
2024-03-05T06:33:24.796Z,9.33
2024-03-05T06:38:26.428Z,9.72
2024-03-05T06:43:40.013Z,9.90
2024-03-05T06:48:49.068Z,8.39
2024-03-05T06:54:09.267Z,8.61
2024-03-05T06:59:11.692Z,10.16
2024-03-05T07:04:13.552Z,9.67
2024-03-05T07:09:15.143Z,10.16
2024-03-05T07:14:17.275Z,10.38
2024-03-05T07:19:18.936Z,10.14
2024-03-05T07:24:20.535Z,9.80
2024-03-05T07:29:22.180Z,8.42
2024-03-05T07:34:23.916Z,8.65
2024-03-05T07:39:25.990Z,8.74
2024-03-05T07:44:28.055Z,8.70
2024-03-05T07:49:29.797Z,8.67
2024-03-05T07:54:31.540Z,8.84
2024-03-05T07:59:33.377Z,8.77
2024-03-05T08:04:35.119Z,8.94
2024-03-05T08:09:37.963Z,9.05
2024-03-05T08:14:39.576Z,8.82
2024-03-05T08:19:42.666Z,9.01
2024-03-05T08:24:44.334Z,9.09
2024-03-05T08:29:46.355Z,9.19
2024-03-05T08:34:48.134Z,9.26
2024-03-05T08:39:51.305Z,9.71
2024-03-05T08:44:53.149Z,10.98
2024-03-05T08:49:55.196Z,11.27
2024-03-05T08:54:57.601Z,10.99
2024-03-05T09:00:13.164Z,10.90
2024-03-05T09:05:22.724Z,11.42
2024-03-05T09:10:24.456Z,11.12
2024-03-05T09:15:27.105Z,10.79
2024-03-05T09:20:28.789Z,10.25
2024-03-05T09:25:31.541Z,10.67
2024-03-05T09:30:35.012Z,10.81
2024-03-05T09:35:37.171Z,10.56
2024-03-05T09:40:41.479Z,10.56
2024-03-05T09:45:46.132Z,10.54
2024-03-05T09:50:49.908Z,10.58
2024-03-05T09:55:54.021Z,10.68
2024-03-05T10:00:55.738Z,10.31
2024-03-05T10:05:57.996Z,10.92
2024-03-05T10:11:04.972Z,10.81
2024-03-05T10:16:17.558Z,10.74
2024-03-05T10:21:23.628Z,10.75
2024-03-05T10:26:28.516Z,11.34
2024-03-05T10:31:30.428Z,11.60
2024-03-05T10:36:37.497Z,11.29
2024-03-05T10:41:47.448Z,11.74
2024-03-05T10:46:56.405Z,11.58
2024-03-05T10:52:00.967Z,11.51
2024-03-05T10:57:02.608Z,11.08
2024-03-05T11:02:06.542Z,10.80
2024-03-05T11:07:08.642Z,10.81
2024-03-05T11:12:17.831Z,10.89
2024-03-05T11:17:20.957Z,10.90
2024-03-05T11:22:24.949Z,10.94
2024-03-05T11:27:29.357Z,10.87
2024-03-05T11:32:35.643Z,10.99
2024-03-05T11:38:07.412Z,10.96
2024-03-05T11:43:09.038Z,10.89
2024-03-05T11:48:12.657Z,10.87
2024-03-05T11:53:14.892Z,10.83
2024-03-05T11:58:16.588Z,10.84
2024-03-05T12:03:21.057Z,10.85
2024-03-05T12:08:26.098Z,10.81
2024-03-05T12:13:28.556Z,10.87
2024-03-05T12:18:30.397Z,10.89
2024-03-05T12:23:41.601Z,10.84
2024-03-05T12:28:44.926Z,10.88
2024-03-05T12:33:47.138Z,10.71
2024-03-05T12:38:48.799Z,10.82
2024-03-05T12:43:57.091Z,10.74
2024-03-05T12:48:59.906Z,10.63
2024-03-05T12:54:08.971Z,10.78
2024-03-05T12:59:20.835Z,10.58
2024-03-05T13:04:22.530Z,10.58
2024-03-05T13:09:24.369Z,10.54
2024-03-05T13:14:27.195Z,10.51
2024-03-05T13:19:29.202Z,10.56
2024-03-05T13:24:32.438Z,10.55
2024-03-05T13:29:34.043Z,10.60
2024-03-05T13:34:35.727Z,10.44
2024-03-05T13:39:37.390Z,10.38
2024-03-05T13:44:39.448Z,10.46
2024-03-05T13:49:41.110Z,10.40
2024-03-05T13:54:42.778Z,10.39
2024-03-05T13:59:44.948Z,10.30
2024-03-05T14:04:48.385Z,10.21
2024-03-05T14:09:50.557Z,10.18
2024-03-05T14:14:52.194Z,10.09
2024-03-05T14:19:53.957Z,10.20
2024-03-05T14:24:55.750Z,10.11
2024-03-05T14:29:57.801Z,10.11
2024-03-05T14:34:59.865Z,10.10
2024-03-05T14:40:01.832Z,10.22
2024-03-05T14:45:03.634Z,10.31
2024-03-05T14:50:06.302Z,10.35
2024-03-05T14:55:13.720Z,10.30
2024-03-05T15:00:17.324Z,10.30
2024-03-05T15:05:20.284Z,10.38
2024-03-05T15:10:22.997Z,10.29
2024-03-05T15:15:25.268Z,10.34
2024-03-05T15:20:26.934Z,10.33
2024-03-05T15:25:28.663Z,10.43
2024-03-05T15:30:33.126Z,10.40
2024-03-05T15:35:36.352Z,10.41
2024-03-05T15:40:39.018Z,12.28
2024-03-05T15:45:41.747Z,12.55
2024-03-05T15:50:45.861Z,12.48
2024-03-05T15:55:47.897Z,12.47
2024-03-05T16:00:49.773Z,12.58
2024-03-05T16:06:00.028Z,12.53
2024-03-05T16:11:08.559Z,12.59
2024-03-05T16:16:10.773Z,12.39
2024-03-05T16:21:14.339Z,12.46
2024-03-05T16:26:16.913Z,12.54
2024-03-05T16:31:18.577Z,12.48
2024-03-05T16:36:20.512Z,12.37
2024-03-05T16:41:22.329Z,12.28
2024-03-05T16:46:25.139Z,12.30
2024-03-05T16:51:26.791Z,12.05
2024-03-05T16:56:28.436Z,12.42
2024-03-05T17:01:30.143Z,12.41
2024-03-05T17:06:33.125Z,12.27
2024-03-05T17:11:35.179Z,12.24
2024-03-05T17:16:47.107Z,12.32
2024-03-05T17:21:50.641Z,12.33
2024-03-05T17:26:52.354Z,12.40
2024-03-05T17:31:55.775Z,12.41
2024-03-05T17:36:57.585Z,12.40
2024-03-05T17:42:00.019Z,12.10
2024-03-05T17:47:01.795Z,12.16
2024-03-05T17:52:03.758Z,12.26
2024-03-05T17:57:07.482Z,12.29
2024-03-05T18:02:09.580Z,12.32
2024-03-05T18:07:11.241Z,12.04
2024-03-05T18:12:15.786Z,12.21
2024-03-05T18:17:17.863Z,12.17
2024-03-05T18:22:19.755Z,12.12
2024-03-05T18:27:22.685Z,12.20
2024-03-05T18:32:26.536Z,11.94
2024-03-05T18:37:28.204Z,12.08
2024-03-05T18:42:29.884Z,12.21
2024-03-05T18:47:31.572Z,12.26
2024-03-05T18:52:33.608Z,11.06
2024-03-05T18:57:35.291Z,10.39
2024-03-05T19:02:36.916Z,10.35
2024-03-05T19:07:38.674Z,10.25
2024-03-05T19:12:41.123Z,10.04
2024-03-05T19:17:43.918Z,10.03
2024-03-05T19:22:45.590Z,10.07
2024-03-05T19:27:47.253Z,10.08
2024-03-05T19:32:49.824Z,9.93
2024-03-05T19:37:51.569Z,9.94
2024-03-05T19:42:59.338Z,9.88
2024-03-05T19:48:01.069Z,11.22
2024-03-05T19:53:03.703Z,11.62
2024-03-05T19:58:05.590Z,11.56
2024-03-05T20:03:07.202Z,11.45
2024-03-05T20:08:09.263Z,11.56
2024-03-05T20:13:11.093Z,11.44
2024-03-05T20:18:12.765Z,11.40
2024-03-05T20:23:14.530Z,11.49
2024-03-05T20:28:16.520Z,11.80
2024-03-05T20:33:18.251Z,11.45
2024-03-05T20:38:19.866Z,11.42
2024-03-05T20:43:21.503Z,11.54
2024-03-05T20:48:23.104Z,11.59
2024-03-05T20:53:24.839Z,11.43
2024-03-05T20:58:26.474Z,11.35
2024-03-05T21:03:31.536Z,11.40
2024-03-05T21:08:33.243Z,11.52
2024-03-05T21:13:42.731Z,11.58
2024-03-05T21:18:44.636Z,11.37
2024-03-05T21:23:46.245Z,11.41
2024-03-05T21:28:47.918Z,11.55
2024-03-05T21:33:50.246Z,11.37
2024-03-05T21:38:51.872Z,11.34
2024-03-05T21:43:53.590Z,11.44
2024-03-05T21:48:55.443Z,11.20
2024-03-05T21:53:57.876Z,11.25
2024-03-05T21:58:59.500Z,11.45
2024-03-05T22:04:01.152Z,11.04
2024-03-05T22:09:10.127Z,11.28
2024-03-05T22:14:12.891Z,11.49
2024-03-05T22:19:14.626Z,11.35
2024-03-05T22:24:16.878Z,11.21
2024-03-05T22:29:18.647Z,11.39
2024-03-05T22:34:20.284Z,11.18
2024-03-05T22:39:22.228Z,11.21
2024-03-05T22:44:24.828Z,11.31
2024-03-05T22:49:26.472Z,11.10
2024-03-05T22:54:28.690Z,11.04
2024-03-05T22:59:31.270Z,11.23
2024-03-05T23:04:33.841Z,11.09
2024-03-05T23:09:35.890Z,10.98
2024-03-05T23:14:37.802Z,11.05
2024-03-05T23:19:41.727Z,11.10
2024-03-05T23:24:44.667Z,10.95
2024-03-05T23:29:47.162Z,10.91
2024-03-05T23:34:48.792Z,10.95
2024-03-05T23:39:50.455Z,10.89
2024-03-05T23:44:53.573Z,10.85
2024-03-05T23:49:55.203Z,10.96
2024-03-05T23:55:00.135Z,10.86
